createdAt,value
2023-04-02T00:00:05.250Z,96207.00
2023-04-02T00:03:17.346Z,96207.20
2023-04-02T00:06:05.708Z,96208.40
2023-04-02T00:09:25.334Z,96205.00
2023-04-02T00:12:38.216Z,96205.40
2023-04-02T00:15:44.222Z,96203.80
2023-04-02T00:19:05.966Z,96201.20
2023-04-02T00:21:57.061Z,96206.20
2023-04-02T00:24:38.854Z,96206.60
2023-04-02T00:27:41.428Z,96208.20
2023-04-02T00:30:31.450Z,96212.00
2023-04-02T00:33:34.172Z,96208.60
2023-04-02T00:36:54.467Z,96207.40
2023-04-02T00:40:13.365Z,96204.60
2023-04-02T00:42:54.963Z,96208.80
2023-04-02T00:45:51.249Z,96204.60
2023-04-02T00:49:10.886Z,96206.80
2023-04-02T00:52:13.425Z,96210.00
2023-04-02T00:55:22.833Z,96205.80
2023-04-02T00:58:14.413Z,96211.20
2023-04-02T01:01:30.496Z,96213.40
2023-04-02T01:05:33.132Z,96211.80
2023-04-02T01:09:16.130Z,96215.60
2023-04-02T01:12:55.474Z,96216.40
2023-04-02T01:16:45.064Z,96212.80
2023-04-02T01:20:13.778Z,96222.20
2023-04-02T01:23:47.317Z,96223.00
2023-04-02T01:27:16.588Z,96231.20
2023-04-02T01:30:15.501Z,96229.00
2023-04-02T01:33:28.978Z,96239.40
2023-04-02T01:36:47.110Z,96237.20
2023-04-02T01:40:28.105Z,96241.20
2023-04-02T01:43:54.384Z,96242.80
2023-04-02T01:46:45.206Z,96246.00
2023-04-02T01:49:40.404Z,96245.00
2023-04-02T01:52:50.907Z,96245.00
2023-04-02T01:56:03.151Z,96243.40
2023-04-02T01:59:00.588Z,96241.00
2023-04-02T02:02:14.225Z,96244.20
2023-04-02T02:05:31.669Z,96248.20
2023-04-02T02:08:40.317Z,96248.40
2023-04-02T02:11:36.472Z,96251.60
2023-04-02T02:15:02.293Z,96251.80
2023-04-02T02:18:17.620Z,96250.60
2023-04-02T02:21:22.106Z,96253.60
2023-04-02T02:24:16.588Z,96257.00
2023-04-02T02:27:36.850Z,96250.40
2023-04-02T02:31:16.266Z,96258.40
2023-04-02T02:34:29.861Z,96259.80
2023-04-02T02:37:49.628Z,96257.20
2023-04-02T02:40:47.145Z,96259.00
2023-04-02T02:43:30.175Z,96259.80
2023-04-02T02:46:13.667Z,96264.00
2023-04-02T02:49:09.996Z,96263.20
2023-04-02T02:52:19.832Z,96266.80
2023-04-02T02:55:49.981Z,96262.20
2023-04-02T02:58:44.126Z,96264.40
2023-04-02T03:01:55.457Z,96266.80
2023-04-02T03:05:06.628Z,96272.00
2023-04-02T03:08:15.221Z,96274.60
2023-04-02T03:11:35.161Z,96273.80
2023-04-02T03:14:47.427Z,96280.00
2023-04-02T03:18:15.017Z,96283.40
2023-04-02T03:22:06.321Z,96287.00
2023-04-02T03:25:26.812Z,96290.20
2023-04-02T03:28:13.216Z,96288.20
2023-04-02T03:31:02.838Z,96290.80
2023-04-02T03:34:19.818Z,96298.80
2023-04-02T03:38:06.831Z,96304.60
2023-04-02T03:41:39.700Z,96309.00
2023-04-02T03:45:00.459Z,96308.60
2023-04-02T03:48:06.413Z,96304.80
2023-04-02T03:51:41.833Z,96313.60
2023-04-02T03:54:53.241Z,96313.80
2023-04-02T03:58:03.444Z,96315.20
2023-04-02T04:01:18.634Z,96318.20
2023-04-02T04:04:29.373Z,96321.00
2023-04-02T04:08:13.647Z,96324.20
2023-04-02T04:11:20.176Z,96327.20
2023-04-02T04:14:47.945Z,96328.20
2023-04-02T04:18:03.492Z,96329.40
2023-04-02T04:21:11.153Z,96336.20
2023-04-02T04:24:36.949Z,96333.40
2023-04-02T04:28:13.211Z,96343.40
2023-04-02T04:31:26.649Z,96343.60
2023-04-02T04:34:31.490Z,96349.40
2023-04-02T04:37:34.720Z,96347.00
2023-04-02T04:41:04.443Z,96349.00
2023-04-02T04:44:07.724Z,96351.20
2023-04-02T04:47:03.837Z,96354.40
2023-04-02T04:50:32.003Z,96354.80
2023-04-02T04:53:35.484Z,96359.60
2023-04-02T04:56:31.725Z,96364.40
2023-04-02T04:59:55.424Z,96364.00
2023-04-02T05:02:48.987Z,96366.00
2023-04-02T05:05:48.329Z,96367.80
2023-04-02T05:08:38.738Z,96376.80
2023-04-02T05:11:45.844Z,96373.80
2023-04-02T05:15:19.929Z,96379.60
2023-04-02T05:18:55.923Z,96380.60
2023-04-02T05:22:41.435Z,96384.20
2023-04-02T05:25:49.034Z,96385.80
2023-04-02T05:29:33.929Z,96385.40
2023-04-02T05:32:41.789Z,96392.00
2023-04-02T05:35:55.170Z,96395.20
2023-04-02T05:38:59.208Z,96403.80
2023-04-02T05:42:33.732Z,96403.00
2023-04-02T05:46:11.128Z,96404.40
2023-04-02T05:49:12.558Z,96404.80
2023-04-02T05:51:51.722Z,96407.00
2023-04-02T05:54:27.423Z,96412.40
2023-04-02T05:56:59.047Z,96411.20
2023-04-02T05:59:31.960Z,96414.20
2023-04-02T06:02:03.981Z,96412.60
2023-04-02T06:04:55.787Z,96415.80
2023-04-02T06:07:53.133Z,96422.20
2023-04-02T06:10:32.984Z,96415.00
2023-04-02T06:13:03.888Z,96425.20
2023-04-02T06:15:36.697Z,96424.60
2023-04-02T06:18:17.250Z,96426.40
2023-04-02T06:20:45.712Z,96431.20
2023-04-02T06:23:22.270Z,96428.00
2023-04-02T06:25:57.930Z,96430.20
2023-04-02T06:28:28.528Z,96428.00
2023-04-02T06:31:01.814Z,96429.60
2023-04-02T06:33:36.626Z,96434.80
2023-04-02T06:36:06.314Z,96440.40
2023-04-02T06:38:36.086Z,96440.00
2023-04-02T06:41:17.990Z,96438.40
2023-04-02T06:44:05.104Z,96440.20
2023-04-02T06:46:52.956Z,96439.80
2023-04-02T06:49:23.770Z,96441.80
2023-04-02T06:51:56.651Z,96438.60
2023-04-02T06:54:26.335Z,96446.00
2023-04-02T06:56:59.196Z,96446.40
2023-04-02T06:59:31.924Z,96444.80
2023-04-02T07:02:06.774Z,96448.00
2023-04-02T07:04:35.516Z,96450.20
2023-04-02T07:07:04.638Z,96454.80
2023-04-02T07:09:37.122Z,96451.00
2023-04-02T07:12:15.499Z,96450.20
2023-04-02T07:14:48.105Z,96455.00
2023-04-02T07:17:18.048Z,96460.80
2023-04-02T07:19:49.661Z,96461.80
2023-04-02T07:22:20.710Z,96461.20
2023-04-02T07:24:55.685Z,96462.40
2023-04-02T07:27:24.018Z,96469.60
2023-04-02T07:29:52.287Z,96474.60
2023-04-02T07:32:20.910Z,96482.20
2023-04-02T07:34:49.232Z,96487.20
2023-04-02T07:37:17.358Z,96482.20
2023-04-02T07:39:45.821Z,96483.40
2023-04-02T07:42:14.081Z,96478.20
2023-04-02T07:44:42.068Z,96479.00
2023-04-02T07:47:10.842Z,96487.40
2023-04-02T07:49:39.102Z,96487.20
2023-04-02T07:52:07.192Z,96488.40
2023-04-02T07:54:36.141Z,96490.20
2023-04-02T07:57:04.456Z,96491.40
2023-04-02T07:59:32.745Z,96490.60
2023-04-02T08:02:01.143Z,96492.80
2023-04-02T08:04:29.534Z,96493.20
2023-04-02T08:06:57.625Z,96496.20
2023-04-02T08:09:26.326Z,96497.40
2023-04-02T08:11:54.390Z,96500.80
2023-04-02T08:14:22.664Z,96499.40
2023-04-02T08:16:52.204Z,96495.00
2023-04-02T08:19:23.954Z,96491.60
2023-04-02T08:21:52.952Z,96490.20
2023-04-02T08:24:21.547Z,96501.00
2023-04-02T08:26:50.115Z,96500.00
2023-04-02T08:29:18.497Z,96502.60
2023-04-02T08:31:46.772Z,96502.40
2023-04-02T08:34:15.056Z,96507.60
2023-04-02T08:36:44.295Z,96506.80
2023-04-02T08:39:12.936Z,96507.60
2023-04-02T08:41:56.158Z,96508.40
2023-04-02T08:44:36.853Z,96509.80
2023-04-02T08:47:08.070Z,96513.60
2023-04-02T08:49:41.054Z,96515.20
2023-04-02T08:52:32.993Z,96517.20
2023-04-02T08:55:02.904Z,96521.80
2023-04-02T08:57:31.846Z,96522.80
2023-04-02T09:00:07.650Z,96527.20
2023-04-02T09:02:39.941Z,96530.40
2023-04-02T09:05:16.393Z,96527.80
2023-04-02T09:07:45.882Z,96531.40
2023-04-02T09:10:16.161Z,96527.40
2023-04-02T09:12:47.270Z,96528.00
2023-04-02T09:15:32.009Z,96529.20
2023-04-02T09:18:13.625Z,96528.00
2023-04-02T09:20:42.509Z,96526.40
2023-04-02T09:23:17.830Z,96530.00
2023-04-02T09:25:57.392Z,96528.40
2023-04-02T09:28:29.668Z,96532.80
2023-04-02T09:31:16.568Z,96531.40
2023-04-02T09:33:49.511Z,96537.20
2023-04-02T09:36:37.385Z,96540.00
2023-04-02T09:39:26.462Z,96536.20
2023-04-02T09:42:05.186Z,96536.20
2023-04-02T09:44:34.167Z,96534.00
2023-04-02T09:47:07.691Z,96536.00
2023-04-02T09:49:45.144Z,96540.00
2023-04-02T09:52:29.211Z,96536.00
2023-04-02T09:55:18.285Z,96536.20
2023-04-02T09:57:47.270Z,96543.00
2023-04-02T10:03:20.349Z,96542.80
2023-04-02T10:05:49.017Z,96542.80
2023-04-02T10:08:26.430Z,96539.20
2023-04-02T10:10:56.988Z,96540.00
2023-04-02T10:13:25.747Z,96542.00
2023-04-02T10:16:33.187Z,96544.00
2023-04-02T10:19:27.656Z,96543.80
2023-04-02T10:21:56.653Z,96546.40
2023-04-02T10:24:27.649Z,96540.60
2023-04-02T10:27:28.924Z,96544.00
2023-04-02T10:30:06.203Z,96540.00
2023-04-02T10:33:00.891Z,96541.60
2023-04-02T10:36:12.130Z,96543.80
2023-04-02T10:39:28.222Z,96547.00
2023-04-02T10:42:20.105Z,96543.60
2023-04-02T10:45:02.267Z,96544.80
2023-04-02T10:47:44.843Z,96545.00
2023-04-02T10:50:19.350Z,96541.00
2023-04-02T10:53:12.394Z,96541.60
2023-04-02T10:55:43.865Z,96545.00
2023-04-02T10:58:26.406Z,96545.60
2023-04-02T11:01:05.545Z,96542.80
2023-04-02T11:03:40.205Z,96543.60
2023-04-02T11:06:33.268Z,96546.60
2023-04-02T11:09:05.123Z,96548.60
2023-04-02T11:11:41.391Z,96547.20
2023-04-02T11:14:29.544Z,96545.40
2023-04-02T11:17:03.471Z,96546.80
2023-04-02T11:19:33.075Z,96547.20
2023-04-02T11:22:22.322Z,96550.00
2023-04-02T11:24:54.634Z,96547.00
2023-04-02T11:27:34.956Z,96547.60
2023-04-02T11:30:27.233Z,96548.40
2023-04-02T11:32:57.066Z,96545.20
2023-04-02T11:35:30.805Z,96548.40
2023-04-02T11:38:09.948Z,96549.00
2023-04-02T11:40:48.138Z,96548.00
2023-04-02T11:43:35.583Z,96556.40
2023-04-02T11:46:19.197Z,96561.40
2023-04-02T11:48:47.731Z,96557.20
2023-04-02T11:51:36.262Z,96554.60
2023-04-02T11:54:04.951Z,96562.20
2023-04-02T11:56:44.246Z,96561.00
2023-04-02T11:59:18.551Z,96566.40
2023-04-02T12:02:18.398Z,96563.80
2023-04-02T12:05:09.420Z,96562.80
2023-04-02T12:07:56.834Z,96559.20
2023-04-02T12:10:29.067Z,96563.20
2023-04-02T12:12:57.400Z,96561.40
2023-04-02T12:15:44.505Z,96566.40
2023-04-02T12:18:23.336Z,96568.80
2023-04-02T12:20:56.350Z,96565.20
2023-04-02T12:23:32.214Z,96566.00
2023-04-02T12:26:06.618Z,96569.00
2023-04-02T12:28:38.345Z,96573.20
2023-04-02T12:31:18.955Z,96566.20
2023-04-02T12:33:47.361Z,96567.40
2023-04-02T12:36:23.006Z,96564.20
2023-04-02T12:38:56.385Z,96568.00
2023-04-02T12:41:32.375Z,96563.60
2023-04-02T12:44:06.542Z,96571.00
2023-04-02T12:46:35.141Z,96563.60
2023-04-02T12:49:34.775Z,96566.40
2023-04-02T12:52:10.900Z,96562.20
2023-04-02T12:54:52.015Z,96566.20
2023-04-02T12:57:41.103Z,96567.80
2023-04-02T13:00:21.962Z,96562.20
2023-04-02T13:02:59.478Z,96567.40
2023-04-02T13:05:39.680Z,96562.80
2023-04-02T13:08:23.430Z,96563.80
2023-04-02T13:10:54.432Z,96564.20
2023-04-02T13:13:27.990Z,96561.60
2023-04-02T13:16:07.251Z,96567.80
2023-04-02T13:18:37.323Z,96560.20
2023-04-02T13:21:07.154Z,96564.40
2023-04-02T13:23:37.087Z,96568.80
2023-04-02T13:26:25.704Z,96569.80
2023-04-02T13:29:09.974Z,96571.40
2023-04-02T13:31:38.163Z,96571.60
2023-04-02T13:34:07.330Z,96578.40
2023-04-02T13:36:37.575Z,96575.20
2023-04-02T13:39:06.245Z,96575.80
2023-04-02T13:41:40.548Z,96577.00
2023-04-02T13:44:33.531Z,96572.60
2023-04-02T13:47:02.028Z,96576.60
2023-04-02T13:49:30.195Z,96576.00
2023-04-02T13:52:04.562Z,96573.20
2023-04-02T13:54:43.339Z,96572.20
2023-04-02T13:57:11.749Z,96577.60
2023-04-02T13:59:39.985Z,96578.80
2023-04-02T14:02:17.384Z,96577.60
2023-04-02T14:04:53.113Z,96578.00
2023-04-02T14:07:27.486Z,96578.80
2023-04-02T14:10:19.247Z,96578.80
2023-04-02T14:13:32.893Z,96579.40
2023-04-02T14:16:32.311Z,96575.40
2023-04-02T14:19:18.483Z,96581.60
2023-04-02T14:22:20.447Z,96579.80
2023-04-02T14:25:17.412Z,96581.00
2023-04-02T14:28:04.099Z,96578.00
2023-04-02T14:30:53.611Z,96583.00
2023-04-02T14:33:47.858Z,96583.40
2023-04-02T14:36:22.011Z,96587.00
2023-04-02T14:39:02.434Z,96581.00
2023-04-02T14:41:31.024Z,96584.20
2023-04-02T14:44:06.077Z,96589.80
2023-04-02T14:46:37.605Z,96586.20
2023-04-02T14:49:09.360Z,96585.80
2023-04-02T14:51:43.592Z,96581.40
2023-04-02T14:54:39.310Z,96579.00
2023-04-02T14:57:12.433Z,96579.40
2023-04-02T14:59:53.363Z,96579.60
2023-04-02T15:02:36.517Z,96580.80
2023-04-02T15:05:06.809Z,96578.00
2023-04-02T15:07:40.508Z,96579.40
2023-04-02T15:10:32.026Z,96583.80
2023-04-02T15:13:00.710Z,96584.20
2023-04-02T15:15:39.979Z,96591.00
2023-04-02T15:18:17.106Z,96583.60
2023-04-02T15:21:19.385Z,96593.60
2023-04-02T15:23:50.546Z,96595.00
2023-04-02T15:26:35.644Z,96589.80
2023-04-02T15:29:29.288Z,96590.60
2023-04-02T15:32:26.167Z,96591.20
2023-04-02T15:35:06.696Z,96585.20
2023-04-02T15:38:07.026Z,96594.60
2023-04-02T15:40:55.266Z,96593.20
2023-04-02T15:43:41.941Z,96601.20
2023-04-02T15:46:18.575Z,96611.60
2023-04-02T15:48:58.901Z,96614.80
2023-04-02T15:51:39.387Z,96616.80
2023-04-02T15:54:07.478Z,96624.20
2023-04-02T15:56:44.833Z,96629.40
2023-04-02T15:59:25.714Z,96633.40
2023-04-02T16:02:13.340Z,96635.20
2023-04-02T16:05:06.597Z,96637.00
2023-04-02T16:07:37.940Z,96638.20
2023-04-02T16:12:57.327Z,96648.00
2023-04-02T16:15:35.424Z,96646.80
2023-04-02T16:18:17.192Z,96646.80
2023-04-02T16:20:47.116Z,96649.40
2023-04-02T16:23:18.016Z,96653.60
2023-04-02T16:25:57.303Z,96653.20
2023-04-02T16:28:29.912Z,96656.00
2023-04-02T16:31:25.011Z,96652.80
2023-04-02T16:34:25.204Z,96655.40
2023-04-02T16:37:14.512Z,96661.00
2023-04-02T16:40:12.550Z,96666.40
2023-04-02T16:43:18.639Z,96671.00
2023-04-02T16:46:39.797Z,96676.40
2023-04-02T16:49:21.014Z,96679.00
2023-04-02T16:52:11.617Z,96680.80
2023-04-02T16:54:50.179Z,96685.40
2023-04-02T16:57:26.705Z,96682.80
2023-04-02T17:00:13.856Z,96685.60
2023-04-02T17:03:00.951Z,96690.20
2023-04-02T17:05:32.476Z,96691.40
2023-04-02T17:08:13.921Z,96692.20
2023-04-02T17:10:57.934Z,96701.40
2023-04-02T17:13:38.229Z,96704.80
2023-04-02T17:16:12.381Z,96701.80
2023-04-02T17:18:42.094Z,96705.60
2023-04-02T17:21:12.910Z,96709.60
2023-04-02T17:23:55.345Z,96712.80
2023-04-02T17:26:27.607Z,96714.60
2023-04-02T17:28:58.134Z,96713.20
2023-04-02T17:31:30.828Z,96716.00
2023-04-02T17:33:59.060Z,96721.60
2023-04-02T17:36:45.677Z,96725.80
2023-04-02T17:39:25.653Z,96728.40
2023-04-02T17:42:06.401Z,96731.00
2023-04-02T17:44:53.565Z,96739.40
2023-04-02T17:48:05.856Z,96741.40
2023-04-02T17:50:46.342Z,96736.20
2023-04-02T17:53:54.803Z,96741.60
2023-04-02T17:57:29.125Z,96745.20
2023-04-02T18:00:22.689Z,96742.60
2023-04-02T18:03:32.372Z,96751.00
2023-04-02T18:06:33.996Z,96756.60
2023-04-02T18:10:00.334Z,96755.40
2023-04-02T18:13:05.550Z,96760.00
2023-04-02T18:16:28.191Z,96761.40
2023-04-02T18:19:28.685Z,96762.20
2023-04-02T18:22:39.426Z,96763.20
2023-04-02T18:25:49.432Z,96769.60
2023-04-02T18:29:15.769Z,96768.00
2023-04-02T18:32:33.678Z,96766.40
2023-04-02T18:35:34.456Z,96769.20
2023-04-02T18:39:00.986Z,96779.40
2023-04-02T18:41:52.559Z,96779.60
2023-04-02T18:45:00.378Z,96778.00
2023-04-02T18:48:02.480Z,96786.80
2023-04-02T18:50:39.442Z,96789.60
2023-04-02T18:53:46.564Z,96789.20
2023-04-02T18:56:52.427Z,96788.60
2023-04-02T19:00:00.670Z,96791.20
2023-04-02T19:03:21.277Z,96797.20
2023-04-02T19:06:36.915Z,96797.00
2023-04-02T19:09:31.520Z,96796.80
2023-04-02T19:12:18.517Z,96793.80
2023-04-02T19:15:18.576Z,96800.80
2023-04-02T19:18:29.340Z,96797.80
2023-04-02T19:21:24.735Z,96798.40
2023-04-02T19:24:49.673Z,96797.00
2023-04-02T19:28:13.337Z,96806.60
2023-04-02T19:31:31.604Z,96809.80
2023-04-02T19:34:39.130Z,96813.40
2023-04-02T19:37:40.690Z,96815.20
2023-04-02T19:41:16.222Z,96812.20
2023-04-02T19:44:05.074Z,96818.00
2023-04-02T19:46:40.853Z,96823.40
2023-04-02T19:49:28.549Z,96830.00
2023-04-02T19:52:24.178Z,96840.40
2023-04-02T19:55:17.961Z,96848.40
2023-04-02T19:58:12.714Z,96851.80
2023-04-02T20:00:56.658Z,96853.40
2023-04-02T20:03:32.560Z,96859.60
2023-04-02T20:07:08.480Z,96859.80
2023-04-02T20:10:10.357Z,96859.20
2023-04-02T20:12:54.815Z,96861.40
2023-04-02T20:15:36.997Z,96865.00
2023-04-02T20:19:10.222Z,96866.60
2023-04-02T20:21:44.031Z,96865.80
2023-04-02T20:24:32.325Z,96864.60
2023-04-02T20:27:11.149Z,96861.80
2023-04-02T20:29:57.620Z,96860.80
2023-04-02T20:32:37.948Z,96862.20
2023-04-02T20:35:14.091Z,96862.40
2023-04-02T20:37:42.374Z,96868.60
2023-04-02T20:40:10.851Z,96868.40
2023-04-02T20:42:48.848Z,96862.00
2023-04-02T20:45:17.153Z,96866.00
2023-04-02T20:47:45.824Z,96860.40
2023-04-02T20:50:14.032Z,96862.20
2023-04-02T20:52:42.116Z,96859.20
2023-04-02T20:55:10.935Z,96854.20
2023-04-02T20:57:39.292Z,96859.00
2023-04-02T21:00:11.886Z,96857.80
2023-04-02T21:02:40.555Z,96861.00
2023-04-02T21:05:09.216Z,96866.00
2023-04-02T21:07:44.948Z,96864.00
2023-04-02T21:10:33.568Z,96865.20
2023-04-02T21:13:02.094Z,96861.00
2023-04-02T21:15:30.450Z,96864.40
2023-04-02T21:17:58.666Z,96868.00
2023-04-02T21:20:27.076Z,96870.40
2023-04-02T21:22:55.529Z,96867.40
2023-04-02T21:25:23.671Z,96861.00
2023-04-02T21:27:52.023Z,96861.00
2023-04-02T21:30:20.438Z,96857.20
2023-04-02T21:32:48.723Z,96862.60
2023-04-02T21:35:16.951Z,96867.00
2023-04-02T21:37:54.098Z,96866.40
2023-04-02T21:40:35.736Z,96867.80
2023-04-02T21:43:06.854Z,96865.20
2023-04-02T21:45:35.221Z,96863.80
2023-04-02T21:48:09.874Z,96865.00
2023-04-02T21:50:53.714Z,96862.60
2023-04-02T21:53:21.953Z,96865.60
2023-04-02T21:56:03.336Z,96867.00
2023-04-02T21:58:34.473Z,96862.40
2023-04-02T22:01:11.192Z,96861.40
2023-04-02T22:03:42.512Z,96864.60
2023-04-02T22:06:11.670Z,96863.40
2023-04-02T22:08:40.791Z,96865.80
2023-04-02T22:11:16.632Z,96865.40
2023-04-02T22:13:47.804Z,96871.00
2023-04-02T22:16:20.896Z,96864.80
2023-04-02T22:18:49.950Z,96866.60
2023-04-02T22:21:18.335Z,96868.20
2023-04-02T22:24:06.834Z,96867.00
2023-04-02T22:26:36.586Z,96867.80
2023-04-02T22:29:10.412Z,96867.80
2023-04-02T22:31:38.623Z,96866.60
2023-04-02T22:34:09.108Z,96865.80
2023-04-02T22:36:40.363Z,96869.80
2023-04-02T22:39:10.550Z,96875.40
2023-04-02T22:41:38.846Z,96875.40
2023-04-02T22:44:07.297Z,96872.60
2023-04-02T22:46:35.788Z,96874.00
2023-04-02T22:49:06.840Z,96873.60
2023-04-02T22:51:35.280Z,96870.60
2023-04-02T22:54:23.919Z,96876.60
2023-04-02T22:56:52.222Z,96870.40
2023-04-02T22:59:20.448Z,96876.00
2023-04-02T23:01:51.393Z,96872.60
2023-04-02T23:04:19.568Z,96876.20
2023-04-02T23:06:54.903Z,96878.60
2023-04-02T23:09:26.203Z,96883.20
2023-04-02T23:11:54.426Z,96884.80
2023-04-02T23:14:25.988Z,96890.40
2023-04-02T23:16:54.309Z,96891.80
2023-04-02T23:19:22.392Z,96895.20
2023-04-02T23:21:51.751Z,96892.00
2023-04-02T23:24:27.465Z,96891.80
2023-04-02T23:26:55.865Z,96892.40
2023-04-02T23:29:24.108Z,96891.60
2023-04-02T23:31:55.242Z,96888.80
2023-04-02T23:34:23.388Z,96885.60
2023-04-02T23:36:51.505Z,96889.20
2023-04-02T23:39:20.466Z,96889.80
2023-04-02T23:41:49.204Z,96890.80
2023-04-02T23:44:17.370Z,96891.60
2023-04-02T23:46:45.966Z,96896.20
2023-04-02T23:49:14.170Z,96896.80
2023-04-02T23:51:42.229Z,96900.80
2023-04-02T23:54:13.775Z,96900.40
2023-04-02T23:56:42.205Z,96901.20
2023-04-02T23:59:10.444Z,96899.20
